sensor_id;sensor_type;location;lat;lon;timestamp;temperature;humidity
3868;DHT22;1949;48.152;11.528;2023-06-10T00:02:09;25.60;36.90
3868;DHT22;1949;48.152;11.528;2023-06-10T00:04:38;25.60;36.90
3868;DHT22;1949;48.152;11.528;2023-06-10T00:07:05;25.60;37.00
3868;DHT22;1949;48.152;11.528;2023-06-10T00:09:35;25.60;37.00
3868;DHT22;1949;48.152;11.528;2023-06-10T00:12:06;25.60;37.00
3868;DHT22;1949;48.152;11.528;2023-06-10T00:14:33;25.60;37.00
3868;DHT22;1949;48.152;11.528;2023-06-10T00:16:59;25.60;37.00
3868;DHT22;1949;48.152;11.528;2023-06-10T00:19:27;25.50;37.00
3868;DHT22;1949;48.152;11.528;2023-06-10T00:21:58;25.50;37.00
3868;DHT22;1949;48.152;11.528;2023-06-10T00:24:27;25.50;37.00
3868;DHT22;1949;48.152;11.528;2023-06-10T00:26:53;25.50;37.10
3868;DHT22;1949;48.152;11.528;2023-06-10T00:29:20;25.50;37.20
3868;DHT22;1949;48.152;11.528;2023-06-10T00:31:45;25.50;37.20
3868;DHT22;1949;48.152;11.528;2023-06-10T00:34:13;25.40;37.10
3868;DHT22;1949;48.152;11.528;2023-06-10T00:36:38;25.40;37.20
3868;DHT22;1949;48.152;11.528;2023-06-10T00:39:04;25.40;37.30
3868;DHT22;1949;48.152;11.528;2023-06-10T00:41:30;25.30;37.20
3868;DHT22;1949;48.152;11.528;2023-06-10T00:43:56;25.30;37.30
3868;DHT22;1949;48.152;11.528;2023-06-10T00:46:24;25.30;37.30
3868;DHT22;1949;48.152;11.528;2023-06-10T00:48:51;25.30;37.40
3868;DHT22;1949;48.152;11.528;2023-06-10T00:51:18;25.30;37.50
3868;DHT22;1949;48.152;11.528;2023-06-10T00:53:45;25.20;37.50
3868;DHT22;1949;48.152;11.528;2023-06-10T00:56:11;25.20;37.60
3868;DHT22;1949;48.152;11.528;2023-06-10T00:58:38;25.20;37.70
3868;DHT22;1949;48.152;11.528;2023-06-10T01:01:03;25.20;37.80
3868;DHT22;1949;48.152;11.528;2023-06-10T01:03:30;25.10;37.70
3868;DHT22;1949;48.152;11.528;2023-06-10T01:06:04;25.10;37.80
3868;DHT22;1949;48.152;11.528;2023-06-10T01:08:37;25.10;37.90
3868;DHT22;1949;48.152;11.528;2023-06-10T01:11:07;25.10;37.90
3868;DHT22;1949;48.152;11.528;2023-06-10T01:13:36;25.10;38.00
3868;DHT22;1949;48.152;11.528;2023-06-10T01:16:04;25.00;38.00
3868;DHT22;1949;48.152;11.528;2023-06-10T01:18:32;25.00;38.00
3868;DHT22;1949;48.152;11.528;2023-06-10T01:21:00;25.00;38.10
3868;DHT22;1949;48.152;11.528;2023-06-10T01:23:27;25.00;38.10
3868;DHT22;1949;48.152;11.528;2023-06-10T01:26:00;25.00;38.20
3868;DHT22;1949;48.152;11.528;2023-06-10T01:28:41;24.90;38.20
3868;DHT22;1949;48.152;11.528;2023-06-10T01:31:18;24.90;38.30
3868;DHT22;1949;48.152;11.528;2023-06-10T01:33:53;24.90;38.30
3868;DHT22;1949;48.152;11.528;2023-06-10T01:36:20;24.90;38.50
3868;DHT22;1949;48.152;11.528;2023-06-10T01:38:50;24.90;38.50
3868;DHT22;1949;48.152;11.528;2023-06-10T01:41:17;24.90;38.60
3868;DHT22;1949;48.152;11.528;2023-06-10T01:43:45;24.80;38.60
3868;DHT22;1949;48.152;11.528;2023-06-10T01:46:12;24.80;38.60
3868;DHT22;1949;48.152;11.528;2023-06-10T01:48:38;24.80;38.70
3868;DHT22;1949;48.152;11.528;2023-06-10T01:51:05;24.80;38.70
3868;DHT22;1949;48.152;11.528;2023-06-10T01:53:31;24.80;38.80
3868;DHT22;1949;48.152;11.528;2023-06-10T01:55:56;24.80;38.90
3868;DHT22;1949;48.152;11.528;2023-06-10T01:58:24;24.80;38.90
3868;DHT22;1949;48.152;11.528;2023-06-10T02:00:53;24.80;39.00
3868;DHT22;1949;48.152;11.528;2023-06-10T02:03:19;24.80;39.10
3868;DHT22;1949;48.152;11.528;2023-06-10T02:05:44;24.70;39.00
3868;DHT22;1949;48.152;11.528;2023-06-10T02:08:10;24.70;39.00
3868;DHT22;1949;48.152;11.528;2023-06-10T02:10:36;24.70;39.10
3868;DHT22;1949;48.152;11.528;2023-06-10T02:13:02;24.70;39.20
3868;DHT22;1949;48.152;11.528;2023-06-10T02:15:27;24.70;39.20
3868;DHT22;1949;48.152;11.528;2023-06-10T02:17:54;24.70;39.20
3868;DHT22;1949;48.152;11.528;2023-06-10T02:20:21;24.60;39.20
3868;DHT22;1949;48.152;11.528;2023-06-10T02:22:48;24.70;39.40
3868;DHT22;1949;48.152;11.528;2023-06-10T02:25:15;24.70;39.40
3868;DHT22;1949;48.152;11.528;2023-06-10T02:27:47;24.60;39.40
3868;DHT22;1949;48.152;11.528;2023-06-10T02:30:13;24.70;39.50
3868;DHT22;1949;48.152;11.528;2023-06-10T02:32:49;24.60;39.40
3868;DHT22;1949;48.152;11.528;2023-06-10T02:35:17;24.70;39.50
3868;DHT22;1949;48.152;11.528;2023-06-10T02:37:44;24.60;39.40
3868;DHT22;1949;48.152;11.528;2023-06-10T02:40:11;24.60;39.50
3868;DHT22;1949;48.152;11.528;2023-06-10T02:42:37;24.60;39.60
3868;DHT22;1949;48.152;11.528;2023-06-10T02:45:03;24.60;39.60
3868;DHT22;1949;48.152;11.528;2023-06-10T02:47:29;24.60;39.70
3868;DHT22;1949;48.152;11.528;2023-06-10T02:49:55;24.60;39.70
3868;DHT22;1949;48.152;11.528;2023-06-10T02:52:21;24.60;39.80
3868;DHT22;1949;48.152;11.528;2023-06-10T02:54:47;24.60;39.70
3868;DHT22;1949;48.152;11.528;2023-06-10T02:57:12;24.60;39.80
3868;DHT22;1949;48.152;11.528;2023-06-10T02:59:42;24.60;39.80
3868;DHT22;1949;48.152;11.528;2023-06-10T03:02:08;24.60;39.90
3868;DHT22;1949;48.152;11.528;2023-06-10T03:04:34;24.50;39.80
3868;DHT22;1949;48.152;11.528;2023-06-10T03:07:01;24.60;39.90
3868;DHT22;1949;48.152;11.528;2023-06-10T03:09:29;24.50;39.90
3868;DHT22;1949;48.152;11.528;2023-06-10T03:11:55;24.50;40.00
3868;DHT22;1949;48.152;11.528;2023-06-10T03:14:21;24.50;40.00
3868;DHT22;1949;48.152;11.528;2023-06-10T03:16:46;24.50;40.00
3868;DHT22;1949;48.152;11.528;2023-06-10T03:19:14;24.50;40.10
3868;DHT22;1949;48.152;11.528;2023-06-10T03:21:44;24.50;40.10
3868;DHT22;1949;48.152;11.528;2023-06-10T03:24:10;24.50;40.10
3868;DHT22;1949;48.152;11.528;2023-06-10T03:26:38;24.40;40.10
3868;DHT22;1949;48.152;11.528;2023-06-10T03:29:04;24.40;40.10
3868;DHT22;1949;48.152;11.528;2023-06-10T03:31:30;24.40;40.20
3868;DHT22;1949;48.152;11.528;2023-06-10T03:33:59;24.40;40.20
3868;DHT22;1949;48.152;11.528;2023-06-10T03:36:27;24.40;40.40
3868;DHT22;1949;48.152;11.528;2023-06-10T03:38:56;24.40;40.40
3868;DHT22;1949;48.152;11.528;2023-06-10T03:41:23;24.40;40.40
3868;DHT22;1949;48.152;11.528;2023-06-10T03:43:50;24.30;40.30
3868;DHT22;1949;48.152;11.528;2023-06-10T03:46:15;24.40;40.50
3868;DHT22;1949;48.152;11.528;2023-06-10T03:48:44;24.30;40.40
3868;DHT22;1949;48.152;11.528;2023-06-10T03:51:13;24.30;40.50
3868;DHT22;1949;48.152;11.528;2023-06-10T03:53:40;24.30;40.60
3868;DHT22;1949;48.152;11.528;2023-06-10T03:56:06;24.30;40.60
3868;DHT22;1949;48.152;11.528;2023-06-10T03:58:35;24.20;40.60
3868;DHT22;1949;48.152;11.528;2023-06-10T04:01:01;24.20;40.60
3868;DHT22;1949;48.152;11.528;2023-06-10T04:03:29;24.20;40.70
3868;DHT22;1949;48.152;11.528;2023-06-10T04:05:55;24.20;40.80
3868;DHT22;1949;48.152;11.528;2023-06-10T04:08:22;24.20;40.80
3868;DHT22;1949;48.152;11.528;2023-06-10T04:10:48;24.20;40.90
3868;DHT22;1949;48.152;11.528;2023-06-10T04:13:15;24.20;40.90
3868;DHT22;1949;48.152;11.528;2023-06-10T04:15:42;24.20;41.00
3868;DHT22;1949;48.152;11.528;2023-06-10T04:18:07;24.20;41.00
3868;DHT22;1949;48.152;11.528;2023-06-10T04:20:35;24.20;41.00
3868;DHT22;1949;48.152;11.528;2023-06-10T04:23:03;24.20;41.10
3868;DHT22;1949;48.152;11.528;2023-06-10T04:25:29;24.10;41.00
3868;DHT22;1949;48.152;11.528;2023-06-10T04:27:56;24.10;41.00
3868;DHT22;1949;48.152;11.528;2023-06-10T04:30:24;24.10;41.20
3868;DHT22;1949;48.152;11.528;2023-06-10T04:32:56;24.00;41.20
3868;DHT22;1949;48.152;11.528;2023-06-10T04:35:24;24.00;41.40
3868;DHT22;1949;48.152;11.528;2023-06-10T04:38:12;24.00;41.50
3868;DHT22;1949;48.152;11.528;2023-06-10T04:40:39;24.00;41.40
3868;DHT22;1949;48.152;11.528;2023-06-10T04:43:05;23.90;41.50
3868;DHT22;1949;48.152;11.528;2023-06-10T04:45:33;23.90;41.60
3868;DHT22;1949;48.152;11.528;2023-06-10T04:48:00;23.90;41.60
3868;DHT22;1949;48.152;11.528;2023-06-10T04:50:26;23.90;41.60
3868;DHT22;1949;48.152;11.528;2023-06-10T04:52:52;23.90;41.70
3868;DHT22;1949;48.152;11.528;2023-06-10T04:55:20;23.90;41.80
3868;DHT22;1949;48.152;11.528;2023-06-10T04:58:11;23.90;41.80
3868;DHT22;1949;48.152;11.528;2023-06-10T05:00:38;23.90;41.80
3868;DHT22;1949;48.152;11.528;2023-06-10T05:03:07;23.80;41.90
3868;DHT22;1949;48.152;11.528;2023-06-10T05:05:37;23.90;42.10
3868;DHT22;1949;48.152;11.528;2023-06-10T05:08:02;23.90;42.20
3868;DHT22;1949;48.152;11.528;2023-06-10T05:10:29;23.90;42.10
3868;DHT22;1949;48.152;11.528;2023-06-10T05:13:06;23.90;42.10
3868;DHT22;1949;48.152;11.528;2023-06-10T05:15:34;23.90;42.30
3868;DHT22;1949;48.152;11.528;2023-06-10T05:18:00;23.90;42.30
3868;DHT22;1949;48.152;11.528;2023-06-10T05:20:28;23.90;42.40
3868;DHT22;1949;48.152;11.528;2023-06-10T05:22:55;23.90;42.40
3868;DHT22;1949;48.152;11.528;2023-06-10T05:25:22;23.90;42.40
3868;DHT22;1949;48.152;11.528;2023-06-10T05:27:47;24.00;42.50
3868;DHT22;1949;48.152;11.528;2023-06-10T05:30:13;24.00;42.50
3868;DHT22;1949;48.152;11.528;2023-06-10T05:32:48;24.00;42.50
3868;DHT22;1949;48.152;11.528;2023-06-10T05:35:20;24.00;42.50
3868;DHT22;1949;48.152;11.528;2023-06-10T05:37:46;24.00;42.60
3868;DHT22;1949;48.152;11.528;2023-06-10T05:40:12;24.00;42.60
3868;DHT22;1949;48.152;11.528;2023-06-10T05:42:39;23.90;42.60
3868;DHT22;1949;48.152;11.528;2023-06-10T05:45:05;23.90;42.80
3868;DHT22;1949;48.152;11.528;2023-06-10T05:47:32;23.90;42.80
3868;DHT22;1949;48.152;11.528;2023-06-10T05:49:59;23.90;42.90
3868;DHT22;1949;48.152;11.528;2023-06-10T05:52:25;24.00;43.10
3868;DHT22;1949;48.152;11.528;2023-06-10T05:54:51;24.00;43.00
3868;DHT22;1949;48.152;11.528;2023-06-10T05:57:28;24.00;43.00
3868;DHT22;1949;48.152;11.528;2023-06-10T05:59:54;24.10;43.00
3868;DHT22;1949;48.152;11.528;2023-06-10T06:02:19;24.10;43.10
3868;DHT22;1949;48.152;11.528;2023-06-10T06:04:48;24.20;43.10
3868;DHT22;1949;48.152;11.528;2023-06-10T06:07:15;24.20;43.20
3868;DHT22;1949;48.152;11.528;2023-06-10T06:09:41;24.20;43.10
3868;DHT22;1949;48.152;11.528;2023-06-10T06:12:07;24.20;43.10
3868;DHT22;1949;48.152;11.528;2023-06-10T06:14:37;24.30;43.10
3868;DHT22;1949;48.152;11.528;2023-06-10T06:17:04;24.30;43.10
3868;DHT22;1949;48.152;11.528;2023-06-10T06:19:30;24.20;43.10
3868;DHT22;1949;48.152;11.528;2023-06-10T06:21:58;24.30;43.20
3868;DHT22;1949;48.152;11.528;2023-06-10T06:24:24;24.30;43.20
3868;DHT22;1949;48.152;11.528;2023-06-10T06:26:51;24.30;43.20
3868;DHT22;1949;48.152;11.528;2023-06-10T06:29:28;24.30;43.20
3868;DHT22;1949;48.152;11.528;2023-06-10T06:32:03;24.30;43.20
3868;DHT22;1949;48.152;11.528;2023-06-10T06:34:29;24.30;43.30
3868;DHT22;1949;48.152;11.528;2023-06-10T06:36:55;24.30;43.20
3868;DHT22;1949;48.152;11.528;2023-06-10T06:39:20;24.30;43.30
3868;DHT22;1949;48.152;11.528;2023-06-10T06:41:46;24.30;43.40
3868;DHT22;1949;48.152;11.528;2023-06-10T06:44:14;24.20;44.00
3868;DHT22;1949;48.152;11.528;2023-06-10T06:46:39;24.20;43.50
3868;DHT22;1949;48.152;11.528;2023-06-10T06:49:05;24.20;43.60
3868;DHT22;1949;48.152;11.528;2023-06-10T06:51:31;24.30;43.70
3868;DHT22;1949;48.152;11.528;2023-06-10T06:53:56;24.30;43.80
3868;DHT22;1949;48.152;11.528;2023-06-10T06:56:28;24.30;43.90
3868;DHT22;1949;48.152;11.528;2023-06-10T06:58:54;24.40;43.80
3868;DHT22;1949;48.152;11.528;2023-06-10T07:01:21;24.40;43.80
3868;DHT22;1949;48.152;11.528;2023-06-10T07:03:46;24.50;43.90
3868;DHT22;1949;48.152;11.528;2023-06-10T07:06:12;24.50;43.90
3868;DHT22;1949;48.152;11.528;2023-06-10T07:08:39;24.60;43.80
3868;DHT22;1949;48.152;11.528;2023-06-10T07:11:05;24.60;43.80
3868;DHT22;1949;48.152;11.528;2023-06-10T07:13:31;24.60;43.70
3868;DHT22;1949;48.152;11.528;2023-06-10T07:16:03;24.60;43.80
3868;DHT22;1949;48.152;11.528;2023-06-10T07:18:30;24.60;43.70
3868;DHT22;1949;48.152;11.528;2023-06-10T07:20:56;24.70;43.90
3868;DHT22;1949;48.152;11.528;2023-06-10T07:23:22;24.70;43.90
3868;DHT22;1949;48.152;11.528;2023-06-10T07:25:55;24.80;43.80
3868;DHT22;1949;48.152;11.528;2023-06-10T07:28:28;24.80;43.70
3868;DHT22;1949;48.152;11.528;2023-06-10T07:30:58;24.80;43.80
3868;DHT22;1949;48.152;11.528;2023-06-10T07:33:25;24.90;43.70
3868;DHT22;1949;48.152;11.528;2023-06-10T07:35:55;24.90;43.70
3868;DHT22;1949;48.152;11.528;2023-06-10T07:38:27;24.90;43.60
3868;DHT22;1949;48.152;11.528;2023-06-10T07:40:53;24.90;43.50
3868;DHT22;1949;48.152;11.528;2023-06-10T07:43:24;24.90;43.60
3868;DHT22;1949;48.152;11.528;2023-06-10T07:45:50;24.90;43.60
3868;DHT22;1949;48.152;11.528;2023-06-10T07:48:17;25.00;43.70
3868;DHT22;1949;48.152;11.528;2023-06-10T07:50:44;25.00;43.60
3868;DHT22;1949;48.152;11.528;2023-06-10T07:53:10;25.00;43.50
3868;DHT22;1949;48.152;11.528;2023-06-10T07:55:36;25.00;43.20
3868;DHT22;1949;48.152;11.528;2023-06-10T07:58:03;25.00;43.20
3868;DHT22;1949;48.152;11.528;2023-06-10T08:00:39;25.00;43.20
3868;DHT22;1949;48.152;11.528;2023-06-10T08:03:07;25.00;43.20
3868;DHT22;1949;48.152;11.528;2023-06-10T08:05:32;25.00;43.30
3868;DHT22;1949;48.152;11.528;2023-06-10T08:07:58;25.00;43.10
3868;DHT22;1949;48.152;11.528;2023-06-10T08:10:25;25.00;43.00
3868;DHT22;1949;48.152;11.528;2023-06-10T08:12:51;25.00;43.00
3868;DHT22;1949;48.152;11.528;2023-06-10T08:15:16;25.10;42.90
3868;DHT22;1949;48.152;11.528;2023-06-10T08:17:49;25.10;42.80
3868;DHT22;1949;48.152;11.528;2023-06-10T08:20:15;25.10;42.60
3868;DHT22;1949;48.152;11.528;2023-06-10T08:22:43;25.10;42.70
3868;DHT22;1949;48.152;11.528;2023-06-10T08:25:11;25.10;42.80
3868;DHT22;1949;48.152;11.528;2023-06-10T08:27:38;25.10;42.70
3868;DHT22;1949;48.152;11.528;2023-06-10T08:30:04;25.10;42.70
3868;DHT22;1949;48.152;11.528;2023-06-10T08:32:31;25.10;42.60
3868;DHT22;1949;48.152;11.528;2023-06-10T08:34:57;25.10;42.50
3868;DHT22;1949;48.152;11.528;2023-06-10T08:37:24;25.20;42.60
3868;DHT22;1949;48.152;11.528;2023-06-10T08:39:53;25.20;42.50
3868;DHT22;1949;48.152;11.528;2023-06-10T08:42:45;25.20;42.60
3868;DHT22;1949;48.152;11.528;2023-06-10T08:45:17;25.20;42.50
3868;DHT22;1949;48.152;11.528;2023-06-10T08:47:49;25.20;42.50
3868;DHT22;1949;48.152;11.528;2023-06-10T08:50:24;25.20;42.50
3868;DHT22;1949;48.152;11.528;2023-06-10T08:52:54;25.30;42.50
3868;DHT22;1949;48.152;11.528;2023-06-10T08:55:29;25.30;42.50
3868;DHT22;1949;48.152;11.528;2023-06-10T08:57:59;25.30;42.50
3868;DHT22;1949;48.152;11.528;2023-06-10T09:00:28;25.30;42.40
3868;DHT22;1949;48.152;11.528;2023-06-10T09:02:55;25.30;42.40
3868;DHT22;1949;48.152;11.528;2023-06-10T09:05:22;25.30;42.40
3868;DHT22;1949;48.152;11.528;2023-06-10T09:07:49;25.30;43.00
3868;DHT22;1949;48.152;11.528;2023-06-10T09:10:16;25.30;42.50
3868;DHT22;1949;48.152;11.528;2023-06-10T09:12:43;25.30;42.50
3868;DHT22;1949;48.152;11.528;2023-06-10T09:15:09;25.30;42.40
3868;DHT22;1949;48.152;11.528;2023-06-10T09:17:38;25.30;42.40
3868;DHT22;1949;48.152;11.528;2023-06-10T09:20:07;25.30;42.40
3868;DHT22;1949;48.152;11.528;2023-06-10T09:22:49;25.40;42.40
3868;DHT22;1949;48.152;11.528;2023-06-10T09:25:15;25.40;42.40
3868;DHT22;1949;48.152;11.528;2023-06-10T09:27:53;25.40;42.40
3868;DHT22;1949;48.152;11.528;2023-06-10T09:30:33;25.40;42.40
3868;DHT22;1949;48.152;11.528;2023-06-10T09:33:09;25.40;42.40
3868;DHT22;1949;48.152;11.528;2023-06-10T09:35:35;25.40;42.40
3868;DHT22;1949;48.152;11.528;2023-06-10T09:38:01;25.40;42.30
3868;DHT22;1949;48.152;11.528;2023-06-10T09:40:28;25.50;42.30
3868;DHT22;1949;48.152;11.528;2023-06-10T09:42:57;25.50;42.30
3868;DHT22;1949;48.152;11.528;2023-06-10T09:45:30;25.50;42.30
3868;DHT22;1949;48.152;11.528;2023-06-10T09:47:57;25.50;42.30
3868;DHT22;1949;48.152;11.528;2023-06-10T09:50:27;25.50;42.30
3868;DHT22;1949;48.152;11.528;2023-06-10T09:52:53;25.50;42.30
3868;DHT22;1949;48.152;11.528;2023-06-10T09:55:19;25.60;42.20
3868;DHT22;1949;48.152;11.528;2023-06-10T09:57:49;25.60;42.20
3868;DHT22;1949;48.152;11.528;2023-06-10T10:00:16;25.60;42.10
3868;DHT22;1949;48.152;11.528;2023-06-10T10:02:53;25.60;42.00
3868;DHT22;1949;48.152;11.528;2023-06-10T10:05:21;25.60;41.80
3868;DHT22;1949;48.152;11.528;2023-06-10T10:07:48;25.60;41.70
3868;DHT22;1949;48.152;11.528;2023-06-10T10:10:16;25.60;41.80
3868;DHT22;1949;48.152;11.528;2023-06-10T10:13:10;25.60;41.60
3868;DHT22;1949;48.152;11.528;2023-06-10T10:15:37;25.60;41.50
3868;DHT22;1949;48.152;11.528;2023-06-10T10:18:09;25.60;41.40
3868;DHT22;1949;48.152;11.528;2023-06-10T10:20:48;25.60;41.60
3868;DHT22;1949;48.152;11.528;2023-06-10T10:23:21;25.60;41.70
3868;DHT22;1949;48.152;11.528;2023-06-10T10:25:52;25.60;41.60
3868;DHT22;1949;48.152;11.528;2023-06-10T10:28:21;25.60;41.50
3868;DHT22;1949;48.152;11.528;2023-06-10T10:30:53;25.60;41.40
3868;DHT22;1949;48.152;11.528;2023-06-10T10:33:23;25.70;41.40
3868;DHT22;1949;48.152;11.528;2023-06-10T10:35:58;25.60;41.30
3868;DHT22;1949;48.152;11.528;2023-06-10T10:38:24;25.80;41.30
3868;DHT22;1949;48.152;11.528;2023-06-10T10:40:52;25.80;41.30
3868;DHT22;1949;48.152;11.528;2023-06-10T10:43:19;25.80;41.00
3868;DHT22;1949;48.152;11.528;2023-06-10T10:45:46;25.90;41.00
3868;DHT22;1949;48.152;11.528;2023-06-10T10:48:15;25.90;40.90
3868;DHT22;1949;48.152;11.528;2023-06-10T10:50:43;25.90;41.00
3868;DHT22;1949;48.152;11.528;2023-06-10T10:53:08;25.90;40.90
3868;DHT22;1949;48.152;11.528;2023-06-10T10:55:41;26.00;41.00
3868;DHT22;1949;48.152;11.528;2023-06-10T10:58:07;26.00;40.80
3868;DHT22;1949;48.152;11.528;2023-06-10T11:00:34;26.10;40.80
3868;DHT22;1949;48.152;11.528;2023-06-10T11:03:07;26.10;40.60
3868;DHT22;1949;48.152;11.528;2023-06-10T11:05:48;26.10;40.50
3868;DHT22;1949;48.152;11.528;2023-06-10T11:08:45;26.10;40.40
3868;DHT22;1949;48.152;11.528;2023-06-10T11:11:27;26.10;40.30
3868;DHT22;1949;48.152;11.528;2023-06-10T11:16:39;26.20;40.30
3868;DHT22;1949;48.152;11.528;2023-06-10T11:19:06;26.20;40.20
3868;DHT22;1949;48.152;11.528;2023-06-10T11:21:31;26.20;40.20
3868;DHT22;1949;48.152;11.528;2023-06-10T11:24:11;26.20;40.20
3868;DHT22;1949;48.152;11.528;2023-06-10T11:26:44;26.30;40.30
3868;DHT22;1949;48.152;11.528;2023-06-10T11:29:11;26.20;40.20
3868;DHT22;1949;48.152;11.528;2023-06-10T11:31:49;26.20;40.20
3868;DHT22;1949;48.152;11.528;2023-06-10T11:34:15;26.20;40.30
3868;DHT22;1949;48.152;11.528;2023-06-10T11:36:49;26.20;40.40
3868;DHT22;1949;48.152;11.528;2023-06-10T11:39:19;26.20;40.40
3868;DHT22;1949;48.152;11.528;2023-06-10T11:41:47;26.20;40.40
3868;DHT22;1949;48.152;11.528;2023-06-10T11:44:14;26.20;40.40
3868;DHT22;1949;48.152;11.528;2023-06-10T11:46:40;26.20;40.40
3868;DHT22;1949;48.152;11.528;2023-06-10T11:49:09;26.10;40.40
3868;DHT22;1949;48.152;11.528;2023-06-10T11:51:38;26.10;40.40
3868;DHT22;1949;48.152;11.528;2023-06-10T11:54:10;26.10;40.40
3868;DHT22;1949;48.152;11.528;2023-06-10T11:56:37;26.20;40.50
3868;DHT22;1949;48.152;11.528;2023-06-10T11:59:05;26.10;40.60
3868;DHT22;1949;48.152;11.528;2023-06-10T12:01:37;26.20;40.50
3868;DHT22;1949;48.152;11.528;2023-06-10T12:04:09;26.20;40.40
3868;DHT22;1949;48.152;11.528;2023-06-10T12:06:48;26.20;40.20
3868;DHT22;1949;48.152;11.528;2023-06-10T12:09:24;26.30;40.20
3868;DHT22;1949;48.152;11.528;2023-06-10T12:11:57;26.30;40.20
3868;DHT22;1949;48.152;11.528;2023-06-10T12:15:00;26.30;40.20
3868;DHT22;1949;48.152;11.528;2023-06-10T12:17:37;26.50;40.30
3868;DHT22;1949;48.152;11.528;2023-06-10T12:20:07;26.50;40.20
3868;DHT22;1949;48.152;11.528;2023-06-10T12:22:43;26.60;40.10
3868;DHT22;1949;48.152;11.528;2023-06-10T12:25:09;26.70;40.00
3868;DHT22;1949;48.152;11.528;2023-06-10T12:27:37;26.80;39.90
3868;DHT22;1949;48.152;11.528;2023-06-10T12:30:05;26.80;39.80
3868;DHT22;1949;48.152;11.528;2023-06-10T12:32:46;26.90;39.70
3868;DHT22;1949;48.152;11.528;2023-06-10T12:35:16;27.00;39.70
3868;DHT22;1949;48.152;11.528;2023-06-10T12:37:57;27.10;39.60
3868;DHT22;1949;48.152;11.528;2023-06-10T12:40:39;27.10;39.50
3868;DHT22;1949;48.152;11.528;2023-06-10T12:43:09;27.20;39.30
3868;DHT22;1949;48.152;11.528;2023-06-10T12:45:38;27.30;39.10
3868;DHT22;1949;48.152;11.528;2023-06-10T12:48:17;27.30;38.90
3868;DHT22;1949;48.152;11.528;2023-06-10T12:51:01;27.20;38.80
3868;DHT22;1949;48.152;11.528;2023-06-10T12:53:31;27.20;39.00
3868;DHT22;1949;48.152;11.528;2023-06-10T12:55:57;27.10;38.60
3868;DHT22;1949;48.152;11.528;2023-06-10T12:58:23;27.10;38.90
3868;DHT22;1949;48.152;11.528;2023-06-10T13:00:50;27.20;38.60
3868;DHT22;1949;48.152;11.528;2023-06-10T13:03:20;27.20;38.70
3868;DHT22;1949;48.152;11.528;2023-06-10T13:05:46;27.20;38.50
3868;DHT22;1949;48.152;11.528;2023-06-10T13:08:12;27.30;38.70
3868;DHT22;1949;48.152;11.528;2023-06-10T13:10:38;27.30;38.60
3868;DHT22;1949;48.152;11.528;2023-06-10T13:13:05;27.30;38.60
3868;DHT22;1949;48.152;11.528;2023-06-10T13:15:33;27.20;38.70
3868;DHT22;1949;48.152;11.528;2023-06-10T13:18:03;27.20;38.90
3868;DHT22;1949;48.152;11.528;2023-06-10T13:20:29;27.30;39.10
3868;DHT22;1949;48.152;11.528;2023-06-10T13:22:55;27.40;39.10
3868;DHT22;1949;48.152;11.528;2023-06-10T13:25:21;27.50;39.10
3868;DHT22;1949;48.152;11.528;2023-06-10T13:27:46;27.60;39.10
3868;DHT22;1949;48.152;11.528;2023-06-10T13:30:12;27.80;39.00
3868;DHT22;1949;48.152;11.528;2023-06-10T13:32:38;27.90;38.80
3868;DHT22;1949;48.152;11.528;2023-06-10T13:35:04;28.00;38.70
3868;DHT22;1949;48.152;11.528;2023-06-10T13:37:30;28.10;38.70
3868;DHT22;1949;48.152;11.528;2023-06-10T13:39:56;28.20;38.50
3868;DHT22;1949;48.152;11.528;2023-06-10T13:42:22;28.30;38.30
3868;DHT22;1949;48.152;11.528;2023-06-10T13:44:48;28.30;38.10
3868;DHT22;1949;48.152;11.528;2023-06-10T13:47:14;28.30;38.10
3868;DHT22;1949;48.152;11.528;2023-06-10T13:49:41;28.40;38.10
3868;DHT22;1949;48.152;11.528;2023-06-10T13:52:07;28.50;38.10
3868;DHT22;1949;48.152;11.528;2023-06-10T13:54:35;28.50;37.80
3868;DHT22;1949;48.152;11.528;2023-06-10T13:57:04;28.40;37.60
3868;DHT22;1949;48.152;11.528;2023-06-10T13:59:30;28.50;37.70
3868;DHT22;1949;48.152;11.528;2023-06-10T14:01:55;28.60;37.70
3868;DHT22;1949;48.152;11.528;2023-06-10T14:04:22;28.70;37.40
3868;DHT22;1949;48.152;11.528;2023-06-10T14:06:48;28.80;37.20
3868;DHT22;1949;48.152;11.528;2023-06-10T14:09:14;29.00;37.00
3868;DHT22;1949;48.152;11.528;2023-06-10T14:11:40;29.00;36.80
3868;DHT22;1949;48.152;11.528;2023-06-10T14:14:05;29.10;36.60
3868;DHT22;1949;48.152;11.528;2023-06-10T14:16:32;29.20;36.70
3868;DHT22;1949;48.152;11.528;2023-06-10T14:18:59;29.20;36.60
3868;DHT22;1949;48.152;11.528;2023-06-10T14:21:28;29.30;36.50
3868;DHT22;1949;48.152;11.528;2023-06-10T14:23:54;29.40;36.20
3868;DHT22;1949;48.152;11.528;2023-06-10T14:26:21;29.50;36.10
3868;DHT22;1949;48.152;11.528;2023-06-10T14:28:48;29.50;35.80
3868;DHT22;1949;48.152;11.528;2023-06-10T14:31:16;29.50;35.80
3868;DHT22;1949;48.152;11.528;2023-06-10T14:33:42;29.60;35.70
3868;DHT22;1949;48.152;11.528;2023-06-10T14:36:10;29.60;35.80
3868;DHT22;1949;48.152;11.528;2023-06-10T14:38:37;29.70;35.90
3868;DHT22;1949;48.152;11.528;2023-06-10T14:41:04;29.80;36.00
3868;DHT22;1949;48.152;11.528;2023-06-10T14:43:30;29.80;35.90
3868;DHT22;1949;48.152;11.528;2023-06-10T14:45:57;29.90;35.70
3868;DHT22;1949;48.152;11.528;2023-06-10T14:48:24;29.90;35.30
3868;DHT22;1949;48.152;11.528;2023-06-10T14:50:50;29.80;35.70
3868;DHT22;1949;48.152;11.528;2023-06-10T14:53:19;29.70;35.40
3868;DHT22;1949;48.152;11.528;2023-06-10T14:55:47;29.60;35.70
3868;DHT22;1949;48.152;11.528;2023-06-10T14:58:14;29.60;35.40
3868;DHT22;1949;48.152;11.528;2023-06-10T15:00:41;29.60;35.20
3868;DHT22;1949;48.152;11.528;2023-06-10T15:03:07;29.40;35.20
3868;DHT22;1949;48.152;11.528;2023-06-10T15:05:32;29.60;35.30
3868;DHT22;1949;48.152;11.528;2023-06-10T15:08:02;29.70;35.40
3868;DHT22;1949;48.152;11.528;2023-06-10T15:10:27;29.70;35.10
3868;DHT22;1949;48.152;11.528;2023-06-10T15:12:55;29.80;35.10
3868;DHT22;1949;48.152;11.528;2023-06-10T15:15:24;29.80;34.80
3868;DHT22;1949;48.152;11.528;2023-06-10T15:17:52;29.90;34.80
3868;DHT22;1949;48.152;11.528;2023-06-10T15:20:18;30.00;34.80
3868;DHT22;1949;48.152;11.528;2023-06-10T15:22:45;30.00;34.90
3868;DHT22;1949;48.152;11.528;2023-06-10T15:25:17;30.10;34.60
3868;DHT22;1949;48.152;11.528;2023-06-10T15:27:43;30.10;34.70
3868;DHT22;1949;48.152;11.528;2023-06-10T15:30:09;30.10;34.60
3868;DHT22;1949;48.152;11.528;2023-06-10T15:32:44;30.00;34.70
3868;DHT22;1949;48.152;11.528;2023-06-10T15:35:15;30.00;34.70
3868;DHT22;1949;48.152;11.528;2023-06-10T15:37:45;29.90;34.70
3868;DHT22;1949;48.152;11.528;2023-06-10T15:40:13;29.90;34.70
3868;DHT22;1949;48.152;11.528;2023-06-10T15:42:46;29.90;34.70
3868;DHT22;1949;48.152;11.528;2023-06-10T15:45:13;29.90;34.70
3868;DHT22;1949;48.152;11.528;2023-06-10T15:47:41;30.00;34.70
3868;DHT22;1949;48.152;11.528;2023-06-10T15:50:08;30.00;34.60
3868;DHT22;1949;48.152;11.528;2023-06-10T15:52:36;30.10;34.50
3868;DHT22;1949;48.152;11.528;2023-06-10T15:55:02;30.10;34.30
3868;DHT22;1949;48.152;11.528;2023-06-10T15:57:34;30.10;34.20